EJU79TX LIMC-EDDL
Flight info
| Callsign | EJU79TX |
|---|---|
| Flight time | N/A |
| Altitude | 32000 |
| Route | AOSTA DCT ORSUD DCT MOLUS DCT GILIR DCT PENDU DCT IXILU DCT GIVOR DCT SORAL DCT IBERA N853 ARCKY T853 NVO T857 BIKMU BIKMU1A |
| Aircraft | A320/M-SDE3FGHIRWY/LB1 |
Departure
| Time | N/A |
|---|---|
| Airport | Milan Malpensa International Airport (LIMC) |
Arrival
| Time | 2026-05-07 06:20 |
|---|---|
| Airport | Düsseldorf Airport (EDDL) |
| Time | Latitude | Longitude | Altitude | Speed | Heading |
|---|---|---|---|---|---|
| 2026-05-07 05:42 | 47.91306 | 6.10632 | 32008 ft | 417 kts | 13° |
| 2026-05-07 05:43 | 47.94121 | 6.11693 | 32007 ft | 417 kts | 13° |
| 2026-05-07 05:43 | 47.99706 | 6.13800 | 32011 ft | 417 kts | 13° |
| 2026-05-07 05:44 | 48.05325 | 6.15918 | 32014 ft | 416 kts | 13° |
| 2026-05-07 05:44 | 48.10948 | 6.18057 | 32019 ft | 417 kts | 13° |
| 2026-05-07 05:45 | 48.16572 | 6.20195 | 32013 ft | 416 kts | 13° |
| 2026-05-07 05:45 | 48.22184 | 6.22335 | 32009 ft | 416 kts | 14° |
| 2026-05-07 05:46 | 48.27788 | 6.24478 | 32001 ft | 416 kts | 14° |
| 2026-05-07 05:46 | 48.33399 | 6.26623 | 31998 ft | 416 kts | 13° |
| 2026-05-07 05:47 | 48.39009 | 6.28770 | 31988 ft | 416 kts | 13° |
| 2026-05-07 05:47 | 48.44611 | 6.30926 | 31989 ft | 416 kts | 14° |
| 2026-05-07 05:48 | 48.50217 | 6.33087 | 31988 ft | 416 kts | 14° |
| 2026-05-07 05:48 | 48.55830 | 6.35256 | 31987 ft | 416 kts | 14° |
| 2026-05-07 05:49 | 48.61440 | 6.37426 | 31984 ft | 416 kts | 14° |
| 2026-05-07 05:49 | 48.67087 | 6.39260 | 31978 ft | 415 kts | 4° |
| 2026-05-07 05:50 | 48.72853 | 6.39853 | 31971 ft | 415 kts | 3° |
| 2026-05-07 05:50 | 48.78635 | 6.40445 | 31980 ft | 417 kts | 3° |
| 2026-05-07 05:51 | 48.84430 | 6.41018 | 31984 ft | 417 kts | 3° |
| 2026-05-07 05:51 | 48.90225 | 6.41596 | 31987 ft | 417 kts | 3° |
| 2026-05-07 05:52 | 48.96019 | 6.42189 | 31998 ft | 418 kts | 3° |
| 2026-05-07 05:52 | 49.01826 | 6.42786 | 32002 ft | 418 kts | 3° |
| 2026-05-07 05:53 | 49.07638 | 6.43386 | 32005 ft | 419 kts | 3° |
| 2026-05-07 05:53 | 49.13420 | 6.42914 | 32003 ft | 417 kts | 347° |
| 2026-05-07 05:54 | 49.18998 | 6.40644 | 32001 ft | 418 kts | 344° |
| 2026-05-07 05:54 | 49.24613 | 6.38343 | 32004 ft | 417 kts | 344° |
| 2026-05-07 05:55 | 49.30220 | 6.36047 | 31995 ft | 417 kts | 345° |
| 2026-05-07 05:55 | 49.35818 | 6.33738 | 31990 ft | 417 kts | 345° |
| 2026-05-07 05:56 | 49.41414 | 6.31417 | 31991 ft | 417 kts | 344° |
| 2026-05-07 05:56 | 49.47011 | 6.29090 | 31989 ft | 416 kts | 344° |
| 2026-05-07 05:57 | 49.52604 | 6.26767 | 31977 ft | 416 kts | 344° |
| 2026-05-07 05:57 | 49.58195 | 6.24476 | 31981 ft | 416 kts | 345° |
| 2026-05-07 05:58 | 49.63803 | 6.22188 | 31974 ft | 417 kts | 344° |
| 2026-05-07 05:58 | 49.69398 | 6.19906 | 31621 ft | 413 kts | 345° |
| 2026-05-07 05:58 | 49.72169 | 6.18770 | 31371 ft | 410 kts | 345° |
| 2026-05-07 05:59 | 49.74915 | 6.17634 | 31121 ft | 408 kts | 345° |
| 2026-05-07 05:59 | 49.77646 | 6.16499 | 30872 ft | 405 kts | 345° |
| 2026-05-07 05:59 | 49.80356 | 6.15371 | 30622 ft | 402 kts | 344° |
| 2026-05-07 05:59 | 49.83056 | 6.14251 | 30369 ft | 400 kts | 345° |
| 2026-05-07 06:00 | 49.85754 | 6.13282 | 30042 ft | 396 kts | 351° |
| 2026-05-07 06:00 | 49.88488 | 6.12971 | 29548 ft | 393 kts | 360° |
| 2026-05-07 06:00 | 49.91214 | 6.13003 | 29056 ft | 391 kts | 359° |
| 2026-05-07 06:00 | 49.93924 | 6.13028 | 28581 ft | 388 kts | 359° |
| 2026-05-07 06:01 | 49.96612 | 6.13044 | 28109 ft | 385 kts | 359° |
| 2026-05-07 06:01 | 49.99281 | 6.13057 | 27654 ft | 382 kts | 359° |
| 2026-05-07 06:01 | 50.01930 | 6.13070 | 27202 ft | 379 kts | 359° |
| 2026-05-07 06:01 | 50.04551 | 6.13084 | 26765 ft | 376 kts | 359° |
| 2026-05-07 06:02 | 50.07160 | 6.13097 | 26331 ft | 373 kts | 359° |
| 2026-05-07 06:02 | 50.09740 | 6.13108 | 25901 ft | 370 kts | 359° |
| 2026-05-07 06:02 | 50.12305 | 6.13122 | 25459 ft | 367 kts | 359° |
| 2026-05-07 06:02 | 50.14849 | 6.13137 | 25019 ft | 364 kts | 358° |
| 2026-05-07 06:03 | 50.17372 | 6.13155 | 24562 ft | 361 kts | 359° |
| 2026-05-07 06:03 | 50.19874 | 6.13176 | 24112 ft | 359 kts | 358° |
| 2026-05-07 06:03 | 50.22368 | 6.13193 | 23640 ft | 357 kts | 358° |
| 2026-05-07 06:03 | 50.24842 | 6.13201 | 23180 ft | 355 kts | 358° |
| 2026-05-07 06:04 | 50.27308 | 6.13266 | 22704 ft | 354 kts | 3° |
| 2026-05-07 06:04 | 50.29728 | 6.13966 | 22237 ft | 355 kts | 15° |
| 2026-05-07 06:04 | 50.32013 | 6.15427 | 21773 ft | 356 kts | 27° |
| 2026-05-07 06:04 | 50.34101 | 6.17492 | 21312 ft | 355 kts | 32° |
| 2026-05-07 06:05 | 50.36161 | 6.19623 | 20846 ft | 354 kts | 32° |
| 2026-05-07 06:05 | 50.38216 | 6.21739 | 20381 ft | 353 kts | 32° |
| 2026-05-07 06:05 | 50.40266 | 6.23844 | 19926 ft | 351 kts | 32° |
| 2026-05-07 06:05 | 50.42311 | 6.25939 | 19469 ft | 351 kts | 32° |
| 2026-05-07 06:06 | 50.44351 | 6.28038 | 19012 ft | 350 kts | 32° |
| 2026-05-07 06:06 | 50.46379 | 6.30135 | 18563 ft | 349 kts | 32° |
| 2026-05-07 06:06 | 50.48401 | 6.32228 | 18125 ft | 347 kts | 32° |
| 2026-05-07 06:06 | 50.50421 | 6.34284 | 17686 ft | 345 kts | 31° |
| 2026-05-07 06:07 | 50.52471 | 6.36234 | 17251 ft | 344 kts | 29° |
| 2026-05-07 06:07 | 50.54535 | 6.38111 | 16820 ft | 342 kts | 28° |
| 2026-05-07 06:07 | 50.56599 | 6.39958 | 16395 ft | 341 kts | 28° |
| 2026-05-07 06:07 | 50.58657 | 6.41800 | 15970 ft | 340 kts | 28° |
| 2026-05-07 06:08 | 50.60700 | 6.43648 | 15547 ft | 338 kts | 29° |
| 2026-05-07 06:08 | 50.62725 | 6.45505 | 15122 ft | 336 kts | 29° |
| 2026-05-07 06:08 | 50.64739 | 6.47365 | 14713 ft | 335 kts | 29° |
| 2026-05-07 06:08 | 50.66741 | 6.49221 | 14294 ft | 333 kts | 29° |
| 2026-05-07 06:09 | 50.68733 | 6.51068 | 13875 ft | 331 kts | 29° |
| 2026-05-07 06:09 | 50.70712 | 6.52908 | 13456 ft | 329 kts | 29° |
| 2026-05-07 06:09 | 50.72678 | 6.54735 | 13035 ft | 327 kts | 29° |
| 2026-05-07 06:09 | 50.74635 | 6.56550 | 12615 ft | 325 kts | 28° |
| 2026-05-07 06:10 | 50.76582 | 6.58357 | 12189 ft | 324 kts | 28° |
| 2026-05-07 06:10 | 50.78517 | 6.60152 | 11756 ft | 322 kts | 28° |
| 2026-05-07 06:10 | 50.80411 | 6.61912 | 11334 ft | 320 kts | 28° |
| 2026-05-07 06:10 | 50.82365 | 6.63402 | 10913 ft | 316 kts | 17° |
| 2026-05-07 06:11 | 50.84460 | 6.64135 | 10489 ft | 311 kts | 6° |
| 2026-05-07 06:11 | 50.85894 | 6.64439 | 10194 ft | 303 kts | 6° |
| 2026-05-07 06:11 | 50.87938 | 6.64875 | 9918 ft | 291 kts | 6° |
| 2026-05-07 06:11 | 50.90549 | 6.65431 | 9567 ft | 283 kts | 6° |
| 2026-05-07 06:12 | 50.91875 | 6.65710 | 9248 ft | 284 kts | 6° |
| 2026-05-07 06:12 | 50.93806 | 6.66116 | 8799 ft | 276 kts | 6° |
| 2026-05-07 06:12 | 50.96317 | 6.66658 | 7916 ft | 273 kts | 7° |
| 2026-05-07 06:12 | 50.98182 | 6.67063 | 7356 ft | 268 kts | 7° |
| 2026-05-07 06:13 | 50.99426 | 6.67330 | 7000 ft | 266 kts | 7° |
| 2026-05-07 06:13 | 51.01249 | 6.67722 | 6492 ft | 263 kts | 7° |
| 2026-05-07 06:13 | 51.03061 | 6.67905 | 5984 ft | 261 kts | 357° |
| 2026-05-07 06:13 | 51.04893 | 6.67743 | 5494 ft | 264 kts | 356° |
| 2026-05-07 06:14 | 51.06722 | 6.67586 | 5021 ft | 265 kts | 357° |
| 2026-05-07 06:14 | 51.07017 | 6.67561 | 4971 ft | 264 kts | 357° |
| 2026-05-07 06:14 | 51.08680 | 6.67347 | 4490 ft | 264 kts | 352° |
| 2026-05-07 06:14 | 51.10407 | 6.66441 | 4107 ft | 253 kts | 332° |
| 2026-05-07 06:15 | 51.11713 | 6.64898 | 3977 ft | 225 kts | 316° |
| 2026-05-07 06:15 | 51.12695 | 6.63026 | 3939 ft | 212 kts | 310° |
| 2026-05-07 06:15 | 51.13596 | 6.61233 | 3764 ft | 207 kts | 311° |
| 2026-05-07 06:15 | 51.14491 | 6.59486 | 3597 ft | 202 kts | 314° |
| 2026-05-07 06:16 | 51.15598 | 6.58093 | 3184 ft | 202 kts | 334° |
| 2026-05-07 06:16 | 51.16883 | 6.57459 | 3000 ft | 187 kts | 354° |
| 2026-05-07 06:16 | 51.18119 | 6.57516 | 2916 ft | 171 kts | 11° |
| 2026-05-07 06:16 | 51.19223 | 6.58106 | 2749 ft | 166 kts | 27° |
| 2026-05-07 06:17 | 51.20166 | 6.59116 | 2621 ft | 164 kts | 43° |
| 2026-05-07 06:17 | 51.20931 | 6.60479 | 2466 ft | 167 kts | 53° |
| 2026-05-07 06:17 | 51.21633 | 6.61999 | 2243 ft | 172 kts | 55° |
| 2026-05-07 06:17 | 51.22351 | 6.63547 | 2009 ft | 174 kts | 54° |
| 2026-05-07 06:18 | 51.23113 | 6.65047 | 1777 ft | 172 kts | 51° |
| 2026-05-07 06:18 | 51.23822 | 6.66508 | 1538 ft | 161 kts | 54° |
| 2026-05-07 06:18 | 51.24411 | 6.67933 | 1374 ft | 146 kts | 52° |
| 2026-05-07 06:18 | 51.25047 | 6.69141 | 1106 ft | 138 kts | 45° |
| 2026-05-07 06:19 | 51.25652 | 6.70299 | 904 ft | 136 kts | 53° |
| 2026-05-07 06:19 | 51.26224 | 6.71537 | 786 ft | 141 kts | 51° |
| 2026-05-07 06:19 | 51.26811 | 6.72771 | 597 ft | 136 kts | 50° |
| 2026-05-07 06:19 | 51.27385 | 6.73991 | 413 ft | 140 kts | 52° |
| 2026-05-07 06:20 | 51.27970 | 6.75213 | 222 ft | 137 kts | 52° |
| 2026-05-07 06:20 | 51.28526 | 6.76382 | 132 ft | 122 kts | 52° |
| 2026-05-07 06:20 | 51.28946 | 6.77265 | 129 ft | 75 kts | 53° |
| 2026-05-07 06:20 | 51.29196 | 6.77790 | 136 ft | 45 kts | 52° |
| 2026-05-07 06:21 | 51.29293 | 6.77997 | 142 ft | 12 kts | 60° |
| 2026-05-07 06:21 | 51.29295 | 6.78108 | 142 ft | 10 kts | 103° |
| 2026-05-07 06:21 | 51.29249 | 6.78195 | 138 ft | 12 kts | 153° |
| 2026-05-07 06:21 | 51.29168 | 6.78196 | 136 ft | 12 kts | 211° |
| 2026-05-07 06:22 | 51.29112 | 6.78085 | 133 ft | 15 kts | 232° |
| 2026-05-07 06:22 | 51.28962 | 6.77771 | 130 ft | 21 kts | 233° |
| 2026-05-07 06:22 | 51.28870 | 6.77576 | 130 ft | 23 kts | 232° |
| 2026-05-07 06:23 | 51.28770 | 6.77368 | 130 ft | 25 kts | 232° |
| 2026-05-07 06:23 | 51.28662 | 6.77139 | 130 ft | 27 kts | 232° |
| 2026-05-07 06:23 | 51.28545 | 6.76893 | 129 ft | 29 kts | 233° |
| 2026-05-07 06:23 | 51.28425 | 6.76640 | 126 ft | 29 kts | 232° |
| 2026-05-07 06:24 | 51.28345 | 6.76484 | 126 ft | 11 kts | 215° |
| 2026-05-07 06:24 | 51.28294 | 6.76503 | 129 ft | 5 kts | 163° |
| 2026-05-07 06:24 | 51.28240 | 6.76449 | 130 ft | 13 kts | 217° |
| 2026-05-07 06:24 | 51.28159 | 6.76426 | 131 ft | 11 kts | 185° |
| 2026-05-07 06:25 | 51.28084 | 6.76389 | 130 ft | 12 kts | 201° |
| 2026-05-07 06:25 | 51.28046 | 6.76370 | 130 ft | 1 kts | 197° |
| 2026-05-07 06:25 | 51.28043 | 6.76369 | 130 ft | 0 kts | 197° |